createdAt,value
2018-05-13T00:00:49.827Z,14.20
2018-05-13T00:03:18.331Z,14.40
2018-05-13T00:05:46.013Z,14.40
2018-05-13T00:08:15.221Z,14.20
2018-05-13T00:10:42.907Z,14.20
2018-05-13T00:13:10.633Z,14.20
2018-05-13T00:15:38.349Z,14.10
2018-05-13T00:18:06.081Z,14.10
2018-05-13T00:20:33.952Z,14.10
2018-05-13T00:23:01.667Z,14.20
2018-05-13T00:25:29.332Z,14.20
2018-05-13T00:27:57.052Z,14.20
2018-05-13T00:30:24.846Z,14.10
2018-05-13T00:32:52.531Z,14.10
2018-05-13T00:35:20.992Z,14.10
2018-05-13T00:37:48.691Z,14.10
2018-05-13T00:40:16.429Z,14.10
2018-05-13T00:42:44.884Z,14.20
2018-05-13T00:45:13.412Z,14.20
2018-05-13T00:47:41.856Z,14.20
2018-05-13T00:50:09.572Z,14.20
2018-05-13T00:52:37.301Z,14.10
2018-05-13T00:55:04.986Z,14.10
2018-05-13T00:57:32.693Z,14.00
2018-05-13T01:00:00.387Z,14.00
2018-05-13T01:02:28.893Z,14.00
2018-05-13T01:04:57.373Z,14.00
2018-05-13T01:07:25.831Z,14.00
2018-05-13T01:09:53.535Z,14.00
2018-05-13T01:12:21.262Z,14.00
2018-05-13T01:14:48.964Z,13.90
2018-05-13T01:17:17.407Z,14.00
2018-05-13T01:19:45.109Z,14.00
2018-05-13T01:22:12.826Z,14.10
2018-05-13T01:24:40.559Z,14.00
2018-05-13T01:27:08.443Z,14.00
2018-05-13T01:29:36.144Z,14.00
2018-05-13T01:32:04.603Z,14.00
2018-05-13T01:34:33.074Z,14.00
2018-05-13T01:37:00.750Z,14.00
2018-05-13T01:39:28.442Z,13.80
2018-05-13T01:41:56.135Z,13.70
2018-05-13T01:44:23.888Z,13.70
2018-05-13T01:46:51.567Z,13.80
2018-05-13T01:49:19.293Z,13.80
2018-05-13T01:51:46.992Z,13.80
2018-05-13T01:54:14.747Z,13.80
2018-05-13T01:56:42.506Z,13.80
2018-05-13T01:59:10.208Z,13.80
2018-05-13T02:01:37.934Z,13.90
2018-05-13T02:04:06.478Z,14.00
2018-05-13T02:06:34.173Z,13.90
2018-05-13T02:09:01.903Z,14.00
2018-05-13T02:11:29.611Z,13.80
2018-05-13T02:13:57.293Z,13.70
2018-05-13T02:16:25.480Z,13.80
2018-05-13T02:18:53.391Z,13.80
2018-05-13T02:21:21.911Z,13.90
2018-05-13T02:23:49.603Z,13.90
2018-05-13T02:26:17.322Z,13.90
2018-05-13T02:28:45.771Z,13.70
2018-05-13T02:31:13.471Z,13.70
2018-05-13T02:33:41.182Z,13.80
2018-05-13T02:36:08.893Z,13.70
2018-05-13T02:38:37.329Z,13.80
2018-05-13T02:41:05.032Z,13.80
2018-05-13T02:43:32.758Z,13.90
2018-05-13T02:46:00.481Z,14.00
2018-05-13T02:48:28.160Z,13.80
2018-05-13T02:50:55.860Z,13.70
2018-05-13T02:53:23.583Z,13.60
2018-05-13T02:55:51.289Z,13.70
2018-05-13T02:58:18.991Z,13.80
2018-05-13T03:00:46.716Z,13.70
2018-05-13T03:03:15.536Z,13.50
2018-05-13T03:05:44.052Z,13.50
2018-05-13T03:08:11.734Z,13.50
2018-05-13T03:10:39.473Z,13.60
2018-05-13T03:13:07.162Z,13.50
2018-05-13T03:15:34.885Z,13.50
2018-05-13T03:18:02.581Z,13.70
2018-05-13T03:20:30.309Z,13.70
2018-05-13T03:22:58.780Z,13.80
2018-05-13T03:25:27.272Z,13.80
2018-05-13T03:27:55.728Z,13.70
2018-05-13T03:30:23.442Z,13.70
2018-05-13T03:32:51.181Z,13.80
2018-05-13T03:35:19.672Z,13.70
2018-05-13T03:37:47.361Z,13.70
2018-05-13T03:40:15.096Z,13.60
2018-05-13T03:42:43.620Z,13.60
2018-05-13T03:45:12.102Z,13.80
2018-05-13T03:47:39.898Z,13.70
2018-05-13T03:50:07.559Z,14.00
2018-05-13T03:52:35.322Z,14.20
2018-05-13T03:55:03.021Z,14.20
2018-05-13T03:57:31.552Z,14.10
2018-05-13T03:59:59.203Z,14.10
2018-05-13T04:02:26.907Z,14.00
2018-05-13T04:04:54.633Z,14.10
2018-05-13T04:07:22.386Z,14.20
2018-05-13T04:09:56.695Z,14.20
2018-05-13T04:12:31.119Z,14.10
2018-05-13T04:15:05.425Z,14.00
2018-05-13T04:17:33.903Z,14.10
2018-05-13T04:20:02.359Z,14.10
2018-05-13T04:22:30.057Z,14.10
2018-05-13T04:24:57.756Z,14.20
2018-05-13T04:27:25.486Z,14.50
2018-05-13T04:29:54.035Z,14.60
2018-05-13T04:32:21.744Z,14.60
2018-05-13T04:34:49.424Z,15.00
2018-05-13T04:37:17.163Z,15.40
2018-05-13T04:39:45.596Z,15.30
2018-05-13T04:42:13.359Z,15.30
2018-05-13T04:44:41.020Z,15.10
2018-05-13T04:47:08.730Z,15.00
2018-05-13T04:49:36.453Z,15.30
2018-05-13T04:52:04.162Z,15.70
2018-05-13T04:54:31.875Z,16.00
2018-05-13T04:56:59.583Z,16.20
2018-05-13T04:59:28.065Z,16.00
2018-05-13T05:01:56.573Z,15.90
2018-05-13T05:04:24.240Z,15.90
2018-05-13T05:06:51.956Z,16.10
2018-05-13T05:09:20.511Z,15.80
2018-05-13T05:11:48.223Z,15.80
2018-05-13T05:14:16.676Z,15.90
2018-05-13T05:16:44.366Z,15.90
2018-05-13T05:19:12.056Z,16.10
2018-05-13T05:21:39.795Z,16.30
2018-05-13T05:24:08.261Z,16.30
2018-05-13T05:26:36.772Z,16.30
2018-05-13T05:29:05.223Z,16.40
2018-05-13T05:31:33.685Z,16.60
2018-05-13T05:34:01.427Z,16.60
2018-05-13T05:36:29.164Z,16.80
2018-05-13T05:38:56.863Z,16.90
2018-05-13T05:41:24.565Z,17.10
2018-05-13T05:43:52.281Z,17.40
2018-05-13T05:46:19.987Z,17.60
2018-05-13T05:48:47.703Z,17.70
2018-05-13T05:51:15.401Z,18.00
2018-05-13T05:53:43.166Z,18.20
2018-05-13T05:56:10.849Z,18.40
2018-05-13T05:58:38.603Z,18.60
2018-05-13T06:01:06.375Z,18.60
2018-05-13T06:03:34.105Z,18.40
2018-05-13T06:06:01.764Z,18.20
2018-05-13T06:08:29.503Z,18.30
2018-05-13T06:10:58.001Z,18.10
2018-05-13T06:13:25.746Z,18.10
2018-05-13T06:15:53.441Z,18.10
2018-05-13T06:18:21.180Z,18.30
2018-05-13T06:20:49.627Z,18.80
2018-05-13T06:23:17.370Z,18.80
2018-05-13T06:25:45.063Z,18.90
2018-05-13T06:28:12.818Z,18.90
2018-05-13T06:30:40.508Z,18.70
2018-05-13T06:33:09.050Z,18.70
2018-05-13T06:35:36.804Z,18.70
2018-05-13T06:38:04.504Z,18.70
2018-05-13T06:40:32.318Z,18.90
2018-05-13T06:43:00.029Z,19.20
2018-05-13T06:45:28.344Z,19.40
2018-05-13T06:47:56.792Z,19.90
2018-05-13T06:50:24.523Z,19.90
2018-05-13T06:52:52.333Z,19.90
2018-05-13T06:55:20.124Z,20.20
2018-05-13T06:57:48.066Z,20.40
2018-05-13T07:00:16.581Z,20.60
2018-05-13T07:02:44.742Z,20.70
2018-05-13T07:05:12.548Z,20.80
2018-05-13T07:07:40.224Z,20.70
2018-05-13T07:10:07.964Z,20.60
2018-05-13T07:12:35.730Z,20.50
2018-05-13T07:15:03.452Z,20.60
2018-05-13T07:17:31.139Z,20.80
2018-05-13T07:22:27.885Z,21.20
2018-05-13T07:24:55.596Z,21.30
2018-05-13T07:27:23.290Z,21.60
2018-05-13T07:29:51.099Z,21.80
2018-05-13T07:32:18.694Z,22.00
2018-05-13T07:34:46.432Z,21.80
2018-05-13T07:37:14.156Z,21.60
2018-05-13T07:39:41.897Z,21.30
2018-05-13T07:42:09.622Z,21.00
2018-05-13T07:44:38.073Z,20.90
2018-05-13T07:47:06.549Z,21.00
2018-05-13T07:49:34.324Z,21.00
2018-05-13T07:52:02.017Z,21.10
2018-05-13T07:54:30.573Z,21.30
2018-05-13T07:56:59.041Z,21.20
2018-05-13T07:59:26.792Z,21.20
2018-05-13T08:01:55.512Z,21.30
2018-05-13T08:04:24.025Z,21.40
2018-05-13T08:06:52.748Z,21.40
2018-05-13T08:09:20.470Z,21.40
2018-05-13T08:11:48.240Z,21.50
2018-05-13T08:14:16.704Z,21.40
2018-05-13T08:16:45.184Z,21.50
2018-05-13T08:19:12.932Z,21.40
2018-05-13T08:21:40.732Z,21.60
2018-05-13T08:24:09.202Z,21.70
2018-05-13T08:26:36.973Z,21.70
2018-05-13T08:29:05.448Z,21.90
2018-05-13T08:31:33.954Z,21.50
2018-05-13T08:34:01.687Z,21.50
2018-05-13T08:36:29.426Z,21.60
2018-05-13T08:38:58.092Z,21.70
2018-05-13T08:41:25.840Z,21.90
2018-05-13T08:43:54.480Z,21.60
2018-05-13T08:46:22.226Z,21.60
2018-05-13T08:48:49.931Z,21.60
2018-05-13T08:51:17.681Z,21.80
2018-05-13T08:53:45.381Z,22.10
2018-05-13T08:56:13.931Z,22.30
2018-05-13T08:58:42.489Z,22.30
2018-05-13T09:01:10.148Z,22.30
2018-05-13T09:03:37.825Z,22.00
2018-05-13T09:06:05.564Z,22.30
2018-05-13T09:08:33.391Z,22.30
2018-05-13T09:11:01.808Z,22.10
2018-05-13T09:13:29.476Z,22.10
2018-05-13T09:15:57.236Z,22.30
2018-05-13T09:18:25.984Z,22.50
2018-05-13T09:20:54.575Z,22.50
2018-05-13T09:23:22.267Z,22.50
2018-05-13T09:25:49.956Z,22.70
2018-05-13T09:28:18.093Z,22.90
2018-05-13T09:30:46.577Z,22.70
2018-05-13T09:33:14.521Z,22.70
2018-05-13T09:35:43.021Z,22.80
2018-05-13T09:38:10.730Z,22.80
2018-05-13T09:40:40.440Z,23.00
2018-05-13T09:43:08.216Z,23.00
2018-05-13T09:45:36.352Z,22.90
2018-05-13T09:48:04.066Z,22.90
2018-05-13T09:50:32.246Z,22.80
2018-05-13T09:53:00.811Z,22.60
2018-05-13T09:55:28.566Z,22.60
2018-05-13T09:57:57.176Z,22.50
2018-05-13T10:00:25.807Z,22.70
2018-05-13T10:02:53.532Z,22.70
2018-05-13T10:05:21.279Z,22.80
2018-05-13T10:07:48.937Z,22.80
2018-05-13T10:10:17.287Z,22.90
2018-05-13T10:12:45.019Z,23.10
2018-05-13T10:15:13.489Z,23.30
2018-05-13T10:17:42.016Z,23.40
2018-05-13T10:20:09.727Z,23.40
2018-05-13T10:22:37.494Z,23.60
2018-05-13T10:25:05.252Z,23.60
2018-05-13T10:27:34.338Z,23.50
2018-05-13T10:30:02.076Z,23.50
2018-05-13T10:32:29.764Z,23.50
2018-05-13T10:34:57.506Z,23.60
2018-05-13T10:37:25.214Z,23.50
2018-05-13T10:39:53.844Z,23.40
2018-05-13T10:42:21.629Z,23.50
2018-05-13T10:44:49.333Z,23.70
2018-05-13T10:47:17.094Z,23.50
2018-05-13T10:49:45.288Z,23.40
2018-05-13T10:52:13.639Z,23.40
2018-05-13T10:54:41.384Z,23.40
2018-05-13T10:57:09.419Z,23.40
2018-05-13T10:59:37.953Z,23.40
2018-05-13T11:02:05.815Z,23.30
2018-05-13T11:04:33.500Z,23.20
2018-05-13T11:07:01.242Z,23.40
2018-05-13T11:09:29.442Z,23.50
2018-05-13T11:11:57.171Z,23.70
2018-05-13T11:14:24.872Z,23.60
2018-05-13T11:16:52.611Z,23.40
2018-05-13T11:19:20.347Z,23.10
2018-05-13T11:21:48.435Z,23.00
2018-05-13T11:24:16.187Z,23.00
2018-05-13T11:26:44.889Z,22.80
2018-05-13T11:29:12.670Z,22.60
2018-05-13T11:31:40.381Z,22.60
2018-05-13T11:34:08.110Z,22.50
2018-05-13T11:36:35.853Z,22.60
2018-05-13T11:39:04.481Z,22.50
2018-05-13T11:41:33.302Z,22.20
2018-05-13T11:44:01.069Z,22.20
2018-05-13T11:46:30.023Z,22.00
2018-05-13T11:48:57.782Z,21.80
2018-05-13T11:51:25.470Z,21.70
2018-05-13T11:53:53.226Z,21.30
2018-05-13T11:56:23.688Z,21.00
2018-05-13T11:58:51.897Z,20.90
2018-05-13T12:01:19.679Z,20.90
2018-05-13T12:03:47.439Z,20.40
2018-05-13T12:06:15.563Z,19.90
2018-05-13T12:08:44.083Z,18.70
2018-05-13T12:11:12.100Z,18.70
2018-05-13T12:13:40.646Z,18.30
2018-05-13T12:16:08.367Z,18.30
2018-05-13T12:18:36.893Z,17.90
2018-05-13T12:21:05.059Z,17.70
2018-05-13T12:23:32.717Z,17.70
2018-05-13T12:26:00.593Z,17.20
2018-05-13T12:28:28.367Z,16.90
2018-05-13T12:30:56.149Z,16.80
2018-05-13T12:33:24.316Z,16.80
2018-05-13T12:35:52.030Z,16.80
2018-05-13T12:38:20.808Z,16.80
2018-05-13T12:40:49.326Z,16.70
2018-05-13T12:43:17.237Z,16.70
2018-05-13T12:45:45.600Z,16.70
2018-05-13T12:48:13.342Z,16.60
2018-05-13T12:50:41.337Z,16.60
2018-05-13T12:53:09.872Z,16.50
2018-05-13T12:55:37.601Z,16.50
2018-05-13T12:58:05.534Z,16.40
2018-05-13T13:00:33.628Z,16.40
2018-05-13T13:03:02.044Z,16.50
2018-05-13T13:05:30.577Z,16.40
2018-05-13T13:07:58.273Z,16.40
2018-05-13T13:10:26.353Z,16.40
2018-05-13T13:12:54.835Z,16.40
2018-05-13T13:15:23.370Z,16.40
2018-05-13T13:17:51.865Z,16.40
2018-05-13T13:20:19.637Z,16.30
2018-05-13T13:22:48.115Z,15.90
2018-05-13T13:25:16.749Z,15.90
2018-05-13T13:27:44.484Z,15.70
2018-05-13T13:30:12.221Z,15.70
2018-05-13T13:32:39.989Z,15.70
2018-05-13T13:35:07.752Z,15.80
2018-05-13T13:37:36.070Z,15.80
2018-05-13T13:40:03.820Z,15.60
2018-05-13T13:42:31.705Z,15.70
2018-05-13T13:44:59.451Z,15.80
2018-05-13T13:47:27.161Z,15.90
2018-05-13T13:49:54.908Z,15.90
2018-05-13T13:52:22.632Z,15.90
2018-05-13T13:54:50.372Z,15.90
2018-05-13T13:57:18.081Z,16.00
2018-05-13T13:59:46.077Z,16.10
2018-05-13T14:02:13.761Z,16.10
2018-05-13T14:04:41.540Z,16.20
2018-05-13T14:07:09.282Z,16.00
2018-05-13T14:09:37.770Z,15.90
2018-05-13T14:12:05.519Z,15.90
2018-05-13T14:14:34.040Z,16.10
2018-05-13T14:17:01.808Z,16.10
2018-05-13T14:19:29.612Z,16.10
2018-05-13T14:21:58.110Z,16.00
2018-05-13T14:24:26.692Z,15.90
2018-05-13T14:26:54.674Z,15.90
2018-05-13T14:29:22.388Z,15.70
2018-05-13T14:31:50.108Z,15.50
2018-05-13T14:34:18.626Z,15.60
2018-05-13T14:36:46.366Z,15.60
2018-05-13T14:39:14.886Z,15.40
2018-05-13T14:41:42.596Z,15.40
2018-05-13T14:44:10.345Z,15.30
2018-05-13T14:46:38.901Z,15.30
2018-05-13T14:49:06.628Z,15.20
2018-05-13T14:51:34.427Z,15.10
2018-05-13T14:54:02.156Z,15.10
2018-05-13T14:56:29.875Z,15.10
2018-05-13T14:58:57.947Z,15.10
2018-05-13T15:01:25.692Z,15.00
2018-05-13T15:03:53.439Z,14.90
2018-05-13T15:06:21.211Z,14.90
2018-05-13T15:08:48.965Z,14.90
2018-05-13T15:11:16.674Z,14.80
2018-05-13T15:13:45.212Z,14.80
2018-05-13T15:16:12.938Z,14.80
2018-05-13T15:18:40.742Z,14.80
2018-05-13T15:21:09.231Z,14.70
2018-05-13T15:23:37.042Z,14.70
2018-05-13T15:26:04.765Z,14.90
2018-05-13T15:28:32.504Z,14.90
2018-05-13T15:31:01.009Z,15.10
2018-05-13T15:33:28.714Z,15.10
2018-05-13T15:35:57.278Z,15.20
2018-05-13T15:38:24.977Z,15.20
2018-05-13T15:40:52.729Z,15.30
2018-05-13T15:43:20.457Z,15.40
2018-05-13T15:45:48.234Z,15.50
2018-05-13T15:48:15.993Z,15.50
2018-05-13T15:50:43.766Z,15.40
2018-05-13T15:53:11.490Z,15.40
2018-05-13T15:55:41.372Z,15.40
2018-05-13T15:58:09.100Z,15.30
2018-05-13T16:00:36.890Z,15.40
2018-05-13T16:03:04.661Z,15.40
2018-05-13T16:05:32.379Z,15.40
2018-05-13T16:08:01.189Z,15.50
2018-05-13T16:10:28.904Z,15.50
2018-05-13T16:12:56.679Z,15.60
2018-05-13T16:15:25.185Z,15.70
2018-05-13T16:17:52.957Z,15.70
2018-05-13T16:20:21.363Z,15.80
2018-05-13T16:22:49.457Z,15.90
2018-05-13T16:25:17.356Z,15.80
2018-05-13T16:27:45.882Z,15.80
2018-05-13T16:30:13.667Z,15.80
2018-05-13T16:32:41.845Z,15.80
2018-05-13T16:35:10.273Z,15.90
2018-05-13T16:37:38.405Z,15.80
2018-05-13T16:40:06.954Z,15.60
2018-05-13T16:42:44.615Z,15.60
2018-05-13T16:45:14.069Z,15.50
2018-05-13T16:47:41.913Z,15.40
2018-05-13T16:50:09.615Z,15.40
2018-05-13T16:52:37.705Z,15.50
2018-05-13T16:55:05.721Z,15.50
2018-05-13T16:57:33.537Z,15.60
2018-05-13T17:00:01.407Z,15.60
2018-05-13T17:02:29.427Z,15.70
2018-05-13T17:04:57.438Z,15.60
2018-05-13T17:07:25.527Z,15.60
2018-05-13T17:09:53.268Z,15.70
2018-05-13T17:12:21.061Z,15.60
2018-05-13T17:14:49.565Z,15.30
2018-05-13T17:17:18.097Z,15.30
2018-05-13T17:19:46.250Z,15.20
2018-05-13T17:22:14.014Z,15.20
2018-05-13T17:24:41.757Z,15.10
2018-05-13T17:27:10.734Z,15.10
2018-05-13T17:29:38.582Z,15.10
2018-05-13T17:32:08.317Z,15.30
2018-05-13T17:34:36.203Z,15.20
2018-05-13T17:37:04.762Z,15.30
2018-05-13T17:39:32.508Z,15.30
2018-05-13T17:42:02.044Z,15.40
2018-05-13T17:44:31.466Z,15.30
2018-05-13T17:46:59.697Z,15.30
2018-05-13T17:49:27.474Z,15.30
2018-05-13T17:51:55.277Z,15.20
2018-05-13T17:54:23.628Z,15.20
2018-05-13T17:56:51.375Z,15.10
2018-05-13T17:59:20.268Z,15.00
2018-05-13T18:01:49.060Z,15.00
2018-05-13T18:04:16.922Z,15.00
2018-05-13T18:06:44.727Z,15.00
2018-05-13T18:09:13.325Z,14.90
2018-05-13T18:11:43.033Z,15.00
2018-05-13T18:14:11.047Z,14.90
2018-05-13T18:16:39.449Z,15.00
2018-05-13T18:19:08.087Z,15.00
2018-05-13T18:21:36.842Z,14.90
2018-05-13T18:24:05.274Z,14.90
2018-05-13T18:26:34.691Z,14.80
2018-05-13T18:29:02.772Z,14.80
2018-05-13T18:31:31.349Z,14.80
2018-05-13T18:33:59.158Z,14.80
2018-05-13T18:36:28.522Z,14.70
2018-05-13T18:38:56.413Z,14.70
2018-05-13T18:41:25.798Z,14.70
2018-05-13T18:43:55.138Z,14.70
2018-05-13T18:46:23.690Z,14.70
2018-05-13T18:48:51.475Z,14.70
2018-05-13T18:51:20.586Z,14.70
2018-05-13T18:53:49.118Z,14.60
2018-05-13T18:56:16.923Z,14.60
2018-05-13T18:58:47.529Z,14.60
2018-05-13T19:01:15.235Z,14.60
2018-05-13T19:03:43.367Z,14.70
2018-05-13T19:06:11.137Z,14.80
2018-05-13T19:08:38.899Z,14.80
2018-05-13T19:11:06.671Z,14.80
2018-05-13T19:13:34.803Z,14.80
2018-05-13T19:16:02.577Z,14.80
2018-05-13T19:18:30.364Z,14.70
2018-05-13T19:20:58.102Z,14.70
2018-05-13T19:23:25.887Z,14.70
2018-05-13T19:25:53.642Z,14.80
2018-05-13T19:28:21.454Z,14.80
2018-05-13T19:30:49.271Z,14.80
2018-05-13T19:33:17.547Z,14.90
2018-05-13T19:35:45.307Z,15.00
2018-05-13T19:38:13.119Z,15.00
2018-05-13T19:40:40.885Z,15.00
2018-05-13T19:43:09.606Z,15.00
2018-05-13T19:45:38.798Z,15.00
2018-05-13T19:48:07.152Z,15.00
2018-05-13T19:50:34.885Z,14.90
2018-05-13T19:53:02.606Z,14.80
2018-05-13T19:55:31.131Z,14.70
2018-05-13T19:57:58.871Z,14.70
2018-05-13T20:00:27.047Z,14.70
2018-05-13T20:03:05.125Z,14.70
2018-05-13T20:05:32.982Z,14.70
2018-05-13T20:08:01.154Z,14.70
2018-05-13T20:10:28.961Z,14.70
2018-05-13T20:12:57.762Z,14.60
2018-05-13T20:15:25.509Z,14.60
2018-05-13T20:17:54.018Z,14.60
2018-05-13T20:20:21.938Z,14.60
2018-05-13T20:22:56.099Z,14.60
2018-05-13T20:25:24.107Z,14.60
2018-05-13T20:27:52.625Z,14.60
2018-05-13T20:30:21.408Z,14.70
2018-05-13T20:32:49.461Z,14.70
2018-05-13T20:35:17.497Z,14.70
2018-05-13T20:37:45.244Z,14.70
2018-05-13T20:40:13.361Z,14.70
2018-05-13T20:42:41.101Z,14.70
2018-05-13T20:45:08.884Z,14.70
2018-05-13T20:47:36.635Z,14.80
2018-05-13T20:50:04.385Z,14.80
2018-05-13T20:52:32.184Z,14.80
2018-05-13T20:55:00.017Z,14.80
2018-05-13T20:57:27.784Z,14.90
2018-05-13T20:59:55.598Z,14.90
2018-05-13T21:02:23.360Z,14.80
2018-05-13T21:04:51.086Z,14.90
2018-05-13T21:07:18.835Z,14.80
2018-05-13T21:09:46.536Z,14.80
2018-05-13T21:12:14.340Z,14.70
2018-05-13T21:14:42.036Z,14.80
2018-05-13T21:17:09.790Z,14.70
2018-05-13T21:19:37.484Z,14.70
2018-05-13T21:22:05.308Z,14.70
2018-05-13T21:24:32.969Z,14.80
2018-05-13T21:27:00.726Z,14.80
2018-05-13T21:29:29.193Z,14.90
2018-05-13T21:31:57.043Z,14.90
2018-05-13T21:34:24.777Z,14.80
2018-05-13T21:36:52.515Z,14.80
2018-05-13T21:39:21.034Z,14.80
2018-05-13T21:41:48.948Z,14.80
2018-05-13T21:44:17.341Z,14.90
2018-05-13T21:46:45.863Z,15.00
2018-05-13T21:49:13.533Z,14.90
2018-05-13T21:51:41.696Z,15.00
2018-05-13T21:54:09.417Z,15.10
2018-05-13T21:56:37.129Z,15.10
2018-05-13T21:59:04.840Z,15.20
2018-05-13T22:01:32.562Z,15.20
2018-05-13T22:04:00.238Z,15.20
2018-05-13T22:06:28.332Z,15.10
2018-05-13T22:08:56.028Z,15.00
2018-05-13T22:11:24.518Z,14.80
2018-05-13T22:13:52.989Z,14.80
2018-05-13T22:16:20.673Z,14.80
2018-05-13T22:18:48.754Z,14.90
2018-05-13T22:21:16.496Z,14.80
2018-05-13T22:23:44.956Z,14.80
2018-05-13T22:26:13.499Z,14.80
2018-05-13T22:28:41.228Z,14.80
2018-05-13T22:31:08.918Z,14.70
2018-05-13T22:33:36.614Z,14.60
2018-05-13T22:36:04.341Z,14.50
2018-05-13T22:38:32.025Z,14.50
2018-05-13T22:40:59.745Z,14.40
2018-05-13T22:43:27.460Z,14.40
2018-05-13T22:45:55.149Z,14.30
2018-05-13T22:48:22.886Z,14.30
2018-05-13T22:50:50.593Z,14.30
2018-05-13T22:53:19.069Z,14.30
2018-05-13T22:55:46.783Z,14.30
2018-05-13T22:58:14.480Z,14.30
2018-05-13T23:00:42.191Z,14.30
2018-05-13T23:03:09.945Z,14.30
2018-05-13T23:05:37.670Z,14.30
2018-05-13T23:08:05.397Z,14.20
2018-05-13T23:10:33.092Z,14.10
2018-05-13T23:13:00.796Z,14.10
2018-05-13T23:15:29.282Z,14.10
2018-05-13T23:17:57.780Z,14.20
2018-05-13T23:20:25.547Z,14.10
2018-05-13T23:22:53.715Z,14.20
2018-05-13T23:25:22.178Z,14.20
2018-05-13T23:27:50.711Z,14.20
2018-05-13T23:30:18.379Z,14.20
2018-05-13T23:32:46.076Z,14.20
2018-05-13T23:35:14.574Z,14.10
2018-05-13T23:37:42.314Z,14.10
2018-05-13T23:40:10.033Z,14.20
2018-05-13T23:42:37.767Z,14.30
2018-05-13T23:45:06.251Z,14.40
2018-05-13T23:47:33.964Z,14.40
2018-05-13T23:50:01.678Z,14.40
2018-05-13T23:52:30.155Z,14.30
2018-05-13T23:54:58.606Z,14.40
2018-05-13T23:57:26.338Z,14.40
2018-05-13T23:59:54.018Z,14.30
